createdAt,value
2018-03-24T00:00:35.840Z,1.88
2018-03-24T00:01:24.980Z,1.97
2018-03-24T00:02:14.019Z,1.87
2018-03-24T00:03:03.057Z,1.83
2018-03-24T00:03:52.100Z,1.77
2018-03-24T00:04:41.144Z,1.74
2018-03-24T00:05:30.192Z,1.84
2018-03-24T00:06:19.236Z,1.76
2018-03-24T00:07:08.390Z,1.91
2018-03-24T00:07:57.425Z,1.90
2018-03-24T00:08:46.491Z,1.95
2018-03-24T00:09:35.585Z,1.98
2018-03-24T00:10:24.640Z,1.96
2018-03-24T00:11:13.674Z,1.95
2018-03-24T00:12:02.712Z,1.95
2018-03-24T00:12:51.760Z,1.94
2018-03-24T00:13:40.809Z,2.00
2018-03-24T00:14:29.860Z,1.85
2018-03-24T00:15:18.950Z,1.88
2018-03-24T00:16:08.005Z,1.71
2018-03-24T00:16:57.055Z,1.68
2018-03-24T00:17:46.102Z,1.58
2018-03-24T00:18:35.143Z,1.54
2018-03-24T00:19:24.182Z,1.54
2018-03-24T00:20:13.225Z,1.54
2018-03-24T00:21:02.334Z,1.43
2018-03-24T00:21:51.370Z,1.43
2018-03-24T00:22:40.541Z,1.35
2018-03-24T00:23:29.581Z,1.37
2018-03-24T00:24:18.625Z,1.35
2018-03-24T00:25:07.669Z,1.40
2018-03-24T00:25:56.723Z,1.44
2018-03-24T00:26:45.770Z,1.39
2018-03-24T00:27:34.805Z,1.35
2018-03-24T00:28:24.151Z,1.33
2018-03-24T00:29:13.193Z,1.27
2018-03-24T00:30:02.233Z,1.25
2018-03-24T00:30:51.283Z,1.30
2018-03-24T00:31:40.324Z,1.39
2018-03-24T00:32:29.374Z,1.36
2018-03-24T00:33:18.421Z,1.33
2018-03-24T00:34:07.733Z,1.24
2018-03-24T00:34:56.784Z,1.25
2018-03-24T00:35:45.841Z,1.19
2018-03-24T00:36:34.891Z,1.29
2018-03-24T00:37:23.963Z,1.34
2018-03-24T00:38:13.004Z,1.44
2018-03-24T00:39:02.049Z,1.38
2018-03-24T00:39:51.180Z,1.27
2018-03-24T00:40:40.231Z,1.31
2018-03-24T00:41:29.277Z,1.30
2018-03-24T00:42:18.358Z,1.30
2018-03-24T00:43:07.394Z,1.24
2018-03-24T00:43:56.438Z,1.26
2018-03-24T00:44:45.484Z,1.36
2018-03-24T00:45:36.346Z,1.28
2018-03-24T00:46:25.388Z,1.31
2018-03-24T00:47:14.426Z,1.25
2018-03-24T00:48:03.474Z,1.34
2018-03-24T00:48:52.513Z,1.26
2018-03-24T00:49:41.557Z,1.27
2018-03-24T00:50:30.601Z,1.33
2018-03-24T00:51:19.744Z,1.30
2018-03-24T00:52:08.792Z,1.26
2018-03-24T00:52:57.835Z,1.26
2018-03-24T00:53:46.880Z,1.28
2018-03-24T00:54:35.929Z,1.24
2018-03-24T00:55:25.025Z,1.23
2018-03-24T00:56:14.070Z,1.16
2018-03-24T00:57:03.169Z,1.18
2018-03-24T00:57:52.205Z,1.30
2018-03-24T00:58:41.242Z,1.20
2018-03-24T00:59:30.291Z,1.15
2018-03-24T01:00:19.400Z,1.05
2018-03-24T01:01:08.569Z,1.11
2018-03-24T08:20:45.174Z,2.73
2018-03-24T08:21:34.576Z,2.79
2018-03-24T08:22:23.641Z,2.87
2018-03-24T08:23:12.698Z,2.55
2018-03-24T08:24:01.761Z,2.36
2018-03-24T08:24:50.825Z,2.29
2018-03-24T08:25:39.887Z,2.18
2018-03-24T08:26:29.072Z,2.14
2018-03-24T08:27:18.141Z,2.06
2018-03-24T08:28:07.211Z,2.18
2018-03-24T08:28:56.264Z,2.12
2018-03-24T08:29:45.357Z,2.15
2018-03-24T08:30:34.413Z,2.23
2018-03-24T08:31:23.501Z,2.36
2018-03-24T08:32:12.560Z,2.47
2018-03-24T08:33:01.620Z,2.55
2018-03-24T08:33:50.694Z,2.62
2018-03-24T08:34:39.752Z,2.82
2018-03-24T08:35:28.869Z,2.57
2018-03-24T08:36:17.934Z,2.44
2018-03-24T08:37:06.998Z,2.31
2018-03-24T08:37:56.070Z,2.33
2018-03-24T08:38:45.131Z,2.55
2018-03-24T08:39:34.205Z,2.71
2018-03-24T08:40:23.314Z,2.76
2018-03-24T08:41:12.369Z,2.87
2018-03-24T08:42:01.705Z,2.88
2018-03-24T08:42:51.154Z,3.01
2018-03-24T08:43:40.213Z,3.13
2018-03-24T08:44:29.399Z,3.19
2018-03-24T08:45:18.624Z,3.08
2018-03-24T08:46:07.805Z,3.17
2018-03-24T08:46:57.342Z,3.19
2018-03-24T08:47:46.411Z,3.33
2018-03-24T08:48:35.488Z,3.35
2018-03-24T08:49:24.726Z,3.37
2018-03-24T08:50:13.782Z,3.48
2018-03-24T08:51:02.938Z,3.37
2018-03-24T08:51:51.999Z,3.34
2018-03-24T08:52:41.077Z,3.41
2018-03-24T08:53:30.138Z,3.48
2018-03-24T08:54:19.204Z,3.46
2018-03-24T08:55:08.277Z,3.56
2018-03-24T08:55:57.337Z,3.73
2018-03-24T08:56:46.453Z,3.72
2018-03-24T08:57:35.509Z,3.73
2018-03-24T08:58:24.606Z,3.81
2018-03-24T08:59:13.678Z,3.56
2018-03-24T09:00:02.740Z,3.47
2018-03-24T09:00:51.822Z,3.60
2018-03-24T09:01:40.929Z,3.51
2018-03-24T09:02:29.994Z,3.60
2018-03-24T09:03:19.052Z,3.77
2018-03-24T09:04:08.138Z,3.73
2018-03-24T09:04:57.197Z,3.85
2018-03-24T09:05:46.258Z,4.07
2018-03-24T09:06:35.324Z,4.07
2018-03-24T09:07:24.513Z,3.97
2018-03-24T09:08:13.570Z,3.95
2018-03-24T09:09:02.660Z,3.95
2018-03-24T09:09:51.731Z,4.06
2018-03-24T09:10:40.792Z,4.12
2018-03-24T09:11:29.848Z,4.34
2018-03-24T09:12:18.910Z,4.28
2018-03-24T09:13:08.079Z,4.31
2018-03-24T09:13:57.140Z,4.38
2018-03-24T09:14:46.205Z,4.50
2018-03-24T09:15:35.256Z,4.43
2018-03-24T09:16:24.368Z,4.60
2018-03-24T09:17:13.449Z,4.56
2018-03-24T09:18:02.549Z,4.30
2018-03-24T09:18:51.588Z,4.41
2018-03-24T09:19:40.652Z,4.36
2018-03-24T09:20:29.703Z,4.18
2018-03-24T09:21:18.778Z,4.48
2018-03-24T09:22:07.904Z,4.53
2018-03-24T09:22:56.955Z,4.61
2018-03-24T09:23:46.005Z,4.86
2018-03-24T09:24:35.080Z,5.01
2018-03-24T09:25:24.191Z,5.05
2018-03-24T09:26:13.259Z,5.18
2018-03-24T09:27:02.414Z,5.28
2018-03-24T09:27:51.478Z,5.08
2018-03-24T09:28:40.532Z,5.00
2018-03-24T09:29:29.595Z,5.19
2018-03-24T09:30:18.653Z,5.11
2018-03-24T09:31:07.705Z,5.09
2018-03-24T09:31:56.767Z,5.08
2018-03-24T09:32:45.876Z,5.23
2018-03-24T09:33:34.940Z,5.37
2018-03-24T09:34:24.017Z,5.40
2018-03-24T09:35:13.082Z,5.41
2018-03-24T09:36:02.151Z,5.57
2018-03-24T09:36:51.269Z,5.67
2018-03-24T09:37:40.321Z,5.68
2018-03-24T09:38:29.482Z,5.87
2018-03-24T09:39:18.586Z,6.02
2018-03-24T09:40:07.720Z,5.64
2018-03-24T09:40:56.809Z,5.26
2018-03-24T09:41:45.945Z,5.35
2018-03-24T09:42:35.008Z,5.59
2018-03-24T09:43:24.066Z,5.81
2018-03-24T09:44:13.129Z,5.93
2018-03-24T09:45:02.184Z,6.17
2018-03-24T09:45:51.246Z,6.10
2018-03-24T09:46:40.295Z,6.33
2018-03-24T09:47:29.471Z,6.33
2018-03-24T09:48:18.556Z,5.90
2018-03-24T09:49:07.600Z,6.03
2018-03-24T09:49:56.677Z,6.28
2018-03-24T09:50:45.738Z,6.07
2018-03-24T09:51:34.785Z,6.00
2018-03-24T09:52:23.902Z,6.05
2018-03-24T09:53:12.963Z,6.28
2018-03-24T09:54:02.021Z,6.41
2018-03-24T09:54:51.094Z,6.28
2018-03-24T09:55:40.148Z,6.28
2018-03-24T09:56:29.288Z,6.33
2018-03-24T09:57:18.339Z,6.35
2018-03-24T09:58:07.397Z,6.51
2018-03-24T09:58:56.453Z,6.56
2018-03-24T09:59:45.531Z,6.66
2018-03-24T10:00:34.597Z,6.63
2018-03-24T10:01:23.661Z,6.60
2018-03-24T10:02:12.772Z,6.67
2018-03-24T10:03:01.846Z,6.71
2018-03-24T10:03:50.990Z,6.72
2018-03-24T10:04:40.146Z,6.70
2018-03-24T10:05:29.206Z,6.62
2018-03-24T10:06:18.335Z,6.54
2018-03-24T10:07:07.408Z,6.62
2018-03-24T10:07:56.483Z,6.32
2018-03-24T10:08:45.549Z,6.21
2018-03-24T10:09:34.616Z,6.18
2018-03-24T10:10:23.713Z,6.19
2018-03-24T10:11:12.768Z,6.08
2018-03-24T10:12:01.834Z,6.00
2018-03-24T10:12:50.940Z,5.91
2018-03-24T10:13:39.984Z,5.83
2018-03-24T10:14:29.046Z,5.97
2018-03-24T10:15:18.105Z,6.12
2018-03-24T10:16:07.265Z,6.13
2018-03-24T10:16:56.325Z,6.09
2018-03-24T10:17:46.211Z,6.19
2018-03-24T10:18:35.300Z,5.67
2018-03-24T10:19:24.428Z,5.68
2018-03-24T10:20:13.482Z,5.50
2018-03-24T10:22:44.312Z,5.09
2018-03-24T10:23:43.036Z,4.92
2018-03-24T10:24:32.254Z,4.76
2018-03-24T10:25:21.310Z,5.00
2018-03-24T10:26:10.366Z,5.18
2018-03-24T10:26:59.423Z,5.40
2018-03-24T10:27:48.475Z,5.56
2018-03-24T10:28:37.529Z,5.46
2018-03-24T10:29:26.585Z,5.32
2018-03-24T10:30:15.682Z,5.39
2018-03-24T10:31:05.549Z,5.57
2018-03-24T10:31:54.621Z,5.63
2018-03-24T10:32:43.666Z,5.80
2018-03-24T10:33:32.794Z,5.47
2018-03-24T10:34:21.842Z,5.35
2018-03-24T10:35:10.914Z,5.35
2018-03-24T10:36:00.097Z,5.51
2018-03-24T10:36:49.152Z,5.74
2018-03-24T10:37:43.775Z,5.88
2018-03-24T10:38:32.833Z,6.13
2018-03-24T10:39:21.926Z,6.25
2018-03-24T10:40:10.982Z,6.23
2018-03-24T10:41:05.814Z,6.40
2018-03-24T10:41:54.936Z,6.59
2018-03-24T10:42:49.454Z,6.63
2018-03-24T10:43:39.429Z,6.79
2018-03-24T10:44:28.494Z,6.84
2018-03-24T10:45:17.554Z,6.94
2018-03-24T10:46:06.619Z,7.10
2018-03-24T10:46:56.128Z,7.21
2018-03-24T10:47:45.189Z,7.29
2018-03-24T10:48:34.250Z,7.39
2018-03-24T10:49:23.305Z,7.48
2018-03-24T10:50:12.364Z,7.39
2018-03-24T10:51:01.438Z,7.40
2018-03-24T10:51:50.508Z,7.37
2018-03-24T10:52:39.681Z,7.53
2018-03-24T10:53:28.750Z,7.50
2018-03-24T10:54:17.814Z,7.50
2018-03-24T10:55:06.868Z,7.43
2018-03-24T10:55:55.935Z,7.26
2018-03-24T10:56:45.065Z,7.29
2018-03-24T10:57:34.132Z,7.27
2018-03-24T10:58:23.218Z,7.04
2018-03-24T10:59:12.271Z,7.03
2018-03-24T11:00:01.342Z,6.69
2018-03-24T11:00:55.887Z,6.44
2018-03-24T11:01:44.965Z,6.31
2018-03-24T11:02:35.557Z,6.17
2018-03-24T11:03:24.704Z,6.04
2018-03-24T11:04:13.900Z,6.23
2018-03-24T11:05:03.186Z,6.23
2018-03-24T11:05:52.268Z,6.34
2018-03-24T11:06:41.330Z,6.38
2018-03-24T11:07:30.390Z,6.39
2018-03-24T11:08:19.448Z,6.33
2018-03-24T11:09:08.516Z,6.42
2018-03-24T11:09:57.621Z,6.37
2018-03-24T11:10:46.718Z,6.37
2018-03-24T11:11:35.848Z,6.33
2018-03-24T11:12:24.941Z,6.39
2018-03-24T11:13:13.994Z,6.54
2018-03-24T11:14:03.063Z,6.58
2018-03-24T11:14:52.128Z,6.57
2018-03-24T11:15:41.262Z,6.56
2018-03-24T11:16:30.319Z,6.62
2018-03-24T11:17:19.376Z,6.52
2018-03-24T11:18:08.431Z,6.29
2018-03-24T11:18:57.503Z,6.02
2018-03-24T11:19:46.569Z,5.74
2018-03-24T11:20:35.641Z,5.65
2018-03-24T11:21:24.816Z,5.72
2018-03-24T11:22:13.873Z,5.51
2018-03-24T11:23:02.925Z,5.25
2018-03-24T11:23:51.984Z,5.37
2018-03-24T11:24:41.046Z,5.42
2018-03-24T11:25:30.116Z,5.50
2018-03-24T11:26:19.287Z,5.48
2018-03-24T11:27:08.343Z,5.56
2018-03-24T11:27:57.421Z,5.68
2018-03-24T11:28:46.502Z,5.72
2018-03-24T11:29:35.558Z,5.66
2018-03-24T11:30:24.624Z,5.50
2018-03-24T11:31:13.674Z,5.50
2018-03-24T11:32:02.795Z,5.51
2018-03-24T11:32:51.858Z,5.47
2018-03-24T11:33:40.926Z,5.32
2018-03-24T11:34:29.999Z,4.92
2018-03-24T11:35:19.080Z,4.60
2018-03-24T11:36:08.137Z,4.51
2018-03-24T11:36:57.204Z,4.72
2018-03-24T11:37:46.364Z,4.74
2018-03-24T11:38:35.422Z,4.45
2018-03-24T11:39:24.502Z,4.42
2018-03-24T11:40:13.561Z,4.63
2018-03-24T11:41:02.613Z,4.58
2018-03-24T11:41:52.482Z,4.36
2018-03-24T11:42:41.549Z,4.22
2018-03-24T11:43:30.722Z,4.29
2018-03-24T11:44:19.779Z,4.22
2018-03-24T11:45:08.853Z,4.27
2018-03-24T11:45:57.957Z,4.33
2018-03-24T11:46:47.010Z,4.45
2018-03-24T11:47:36.088Z,4.53
2018-03-24T11:48:25.158Z,4.73
2018-03-24T11:49:14.270Z,4.84
2018-03-24T11:50:03.331Z,4.95
2018-03-24T11:50:52.380Z,5.10
2018-03-24T11:51:41.435Z,5.03
2018-03-24T11:52:30.496Z,4.96
2018-03-24T11:53:19.733Z,5.13
2018-03-24T11:54:08.794Z,5.14
2018-03-24T11:54:57.892Z,5.28
2018-03-24T11:55:46.952Z,4.95
2018-03-24T11:56:36.008Z,4.98
2018-03-24T11:57:25.075Z,5.03
2018-03-24T11:58:14.143Z,5.18
2018-03-24T11:59:03.317Z,5.20
2018-03-24T11:59:52.375Z,5.17
2018-03-24T12:00:41.444Z,5.05
2018-03-24T12:01:30.513Z,5.02
2018-03-24T12:02:19.578Z,5.09
2018-03-24T12:03:08.644Z,5.13
2018-03-24T12:03:57.838Z,5.04
2018-03-24T12:04:46.903Z,5.11
2018-03-24T12:05:35.964Z,5.04
2018-03-24T12:06:25.010Z,4.84
2018-03-24T12:07:14.086Z,4.88
2018-03-24T12:08:03.138Z,4.91
2018-03-24T12:08:52.203Z,5.02
2018-03-24T12:09:41.295Z,4.63
2018-03-24T12:10:30.355Z,4.39
2018-03-24T12:11:19.422Z,4.62
2018-03-24T12:12:08.483Z,4.41
2018-03-24T12:12:57.542Z,4.54
2018-03-24T12:13:46.595Z,4.52
2018-03-24T12:14:35.666Z,4.67
2018-03-24T12:15:24.760Z,4.58
2018-03-24T12:16:13.818Z,4.47
2018-03-24T12:17:02.875Z,4.48
2018-03-24T12:17:51.937Z,4.51
2018-03-24T12:18:41.016Z,4.69
2018-03-24T12:19:30.077Z,4.69
2018-03-24T12:20:19.160Z,4.76
2018-03-24T12:21:08.340Z,4.91
2018-03-24T12:21:57.386Z,5.09
2018-03-24T12:22:46.442Z,5.24
2018-03-24T12:23:35.496Z,5.12
2018-03-24T12:24:24.546Z,5.14
2018-03-24T12:25:13.600Z,4.94
2018-03-24T12:26:02.655Z,5.06
2018-03-24T12:26:51.829Z,4.99
2018-03-24T12:27:40.922Z,4.94
2018-03-24T12:28:29.989Z,5.03
2018-03-24T12:29:19.049Z,5.04
2018-03-24T12:30:08.180Z,5.20
2018-03-24T12:30:57.258Z,5.18
2018-03-24T12:31:46.345Z,5.27
2018-03-24T12:32:35.449Z,5.22
2018-03-24T12:33:24.503Z,4.85
2018-03-24T12:34:13.563Z,4.91
2018-03-24T12:35:02.622Z,4.80
2018-03-24T12:35:51.757Z,4.72
2018-03-24T12:36:40.817Z,4.68
2018-03-24T12:37:29.884Z,4.77
2018-03-24T12:38:18.977Z,4.82
2018-03-24T12:39:08.031Z,4.83
2018-03-24T12:39:57.103Z,4.77
2018-03-24T12:40:46.173Z,4.92
2018-03-24T12:41:35.241Z,5.14
2018-03-24T12:42:24.292Z,5.21
2018-03-24T12:43:13.350Z,5.15
2018-03-24T12:44:02.518Z,4.97
2018-03-24T12:44:52.014Z,4.82
2018-03-24T12:45:41.075Z,4.75
2018-03-24T12:46:30.177Z,4.79
2018-03-24T12:47:19.544Z,4.91
2018-03-24T12:48:08.614Z,5.01
2018-03-24T12:48:57.728Z,4.99
2018-03-24T12:49:46.943Z,4.93
2018-03-24T12:50:36.002Z,4.80
2018-03-24T12:51:25.185Z,4.98
2018-03-24T12:52:14.240Z,5.14
2018-03-24T12:53:03.313Z,5.05
2018-03-24T12:53:52.363Z,5.17
2018-03-24T12:54:41.414Z,5.24
2018-03-24T12:55:30.470Z,5.13
2018-03-24T12:56:19.537Z,5.17
2018-03-24T12:57:08.638Z,5.30
2018-03-24T12:57:57.707Z,5.33
2018-03-24T12:58:46.757Z,5.40
2018-03-24T12:59:35.817Z,5.29
2018-03-24T13:00:24.931Z,5.29
2018-03-24T13:01:14.204Z,5.48
2018-03-24T13:02:03.297Z,5.51
2018-03-24T13:02:52.461Z,5.45
2018-03-24T13:03:41.517Z,5.27
2018-03-24T13:04:30.572Z,5.45
2018-03-24T13:05:19.633Z,5.48
2018-03-24T13:06:08.689Z,5.53
2018-03-24T13:06:57.760Z,5.58
2018-03-24T13:07:46.893Z,5.60
2018-03-24T13:08:35.960Z,5.61
2018-03-24T13:09:25.024Z,5.67
2018-03-24T13:10:14.093Z,5.68
2018-03-24T13:11:03.152Z,5.69
2018-03-24T13:11:52.235Z,5.63
2018-03-24T13:12:41.410Z,5.63
2018-03-24T13:13:30.480Z,5.54
2018-03-24T13:14:19.532Z,5.64
2018-03-24T13:15:08.588Z,5.74
2018-03-24T13:15:57.643Z,5.75
2018-03-24T13:16:46.695Z,5.73
2018-03-24T13:17:35.760Z,5.38
2018-03-24T13:18:24.865Z,5.39
2018-03-24T13:19:13.926Z,5.26
2018-03-24T13:20:03.012Z,4.94
2018-03-24T13:20:52.087Z,5.08
2018-03-24T13:21:41.161Z,5.14
2018-03-24T13:22:30.229Z,5.16
2018-03-24T13:23:19.279Z,5.17
2018-03-24T13:24:08.622Z,5.22
2018-03-24T13:24:57.684Z,5.33
2018-03-24T13:25:46.739Z,5.55
2018-03-24T13:26:35.810Z,5.71
2018-03-24T13:27:24.860Z,5.89
2018-03-24T13:28:13.923Z,6.07
2018-03-24T13:29:03.050Z,6.14
2018-03-24T13:29:52.564Z,6.16
2018-03-24T13:30:41.626Z,6.36
2018-03-24T13:31:30.725Z,6.55
2018-03-24T13:32:19.838Z,6.63
2018-03-24T13:33:08.898Z,6.74
2018-03-24T13:33:58.045Z,6.67
2018-03-24T13:34:47.107Z,6.53
2018-03-24T13:35:36.213Z,6.45
2018-03-24T13:36:25.277Z,6.26
2018-03-24T13:37:14.349Z,6.16
2018-03-24T13:38:03.489Z,6.07
2018-03-24T13:38:52.548Z,6.16
2018-03-24T13:39:41.633Z,6.23
2018-03-24T13:40:30.712Z,6.23
2018-03-24T13:41:19.809Z,6.10
2018-03-24T13:42:08.876Z,6.10
2018-03-24T13:42:57.952Z,6.13
2018-03-24T13:43:47.041Z,6.18
2018-03-24T13:44:36.127Z,6.27
2018-03-24T13:45:25.247Z,6.37
2018-03-24T13:46:14.301Z,6.26
2018-03-24T13:47:03.499Z,5.87
2018-03-24T13:47:52.851Z,5.63
2018-03-24T13:48:41.928Z,5.61
2018-03-24T13:49:31.050Z,5.60
2018-03-24T13:50:20.107Z,5.58
2018-03-24T13:51:09.172Z,5.67
2018-03-24T13:51:58.221Z,5.67
2018-03-24T13:52:47.276Z,5.59
2018-03-24T13:53:36.334Z,5.58
2018-03-24T13:54:25.384Z,5.58
2018-03-24T13:55:14.569Z,5.52
2018-03-24T13:56:03.639Z,5.58
2018-03-24T13:56:52.706Z,5.56
2018-03-24T13:57:41.771Z,5.61
2018-03-24T13:58:30.841Z,5.79
2018-03-24T13:59:19.896Z,5.91
2018-03-24T14:00:08.970Z,6.04
2018-03-24T14:00:58.093Z,5.90
2018-03-24T14:01:47.233Z,5.82
2018-03-24T14:02:36.297Z,5.72
2018-03-24T14:03:25.348Z,5.59
2018-03-24T14:04:14.418Z,5.53
2018-03-24T14:05:03.532Z,5.71
2018-03-24T14:05:52.892Z,5.71
2018-03-24T14:06:42.063Z,5.44
2018-03-24T14:07:31.135Z,5.39
2018-03-24T14:08:20.188Z,5.42
2018-03-24T14:09:09.248Z,5.21
2018-03-24T14:09:58.335Z,5.31
2018-03-24T14:10:47.480Z,5.48
2018-03-24T14:11:36.555Z,5.55
2018-03-24T14:12:25.641Z,5.66
2018-03-24T14:13:14.714Z,5.72
2018-03-24T14:14:03.828Z,5.74
2018-03-24T14:14:52.964Z,5.59
2018-03-24T14:15:42.120Z,5.47
2018-03-24T14:16:31.191Z,5.52
2018-03-24T14:17:20.285Z,5.73
2018-03-24T14:18:09.344Z,5.83
2018-03-24T14:18:58.401Z,5.85
2018-03-24T14:19:47.465Z,5.96
2018-03-24T14:20:36.539Z,6.08
2018-03-24T14:21:25.638Z,6.05
2018-03-24T14:22:14.726Z,5.91
2018-03-24T14:23:03.806Z,5.66
2018-03-24T14:23:52.902Z,5.77
2018-03-24T14:24:41.965Z,5.60
2018-03-24T14:25:31.079Z,5.52
2018-03-24T14:26:20.148Z,5.51
2018-03-24T14:27:09.272Z,5.52
2018-03-24T14:27:58.355Z,5.37
2018-03-24T14:28:47.406Z,5.32
2018-03-24T14:29:36.470Z,5.22
2018-03-24T14:30:25.531Z,5.50
2018-03-24T14:31:14.590Z,5.69
2018-03-24T14:32:03.751Z,5.99
2018-03-24T14:32:52.801Z,5.97
2018-03-24T14:33:41.869Z,6.10
2018-03-24T14:34:31.733Z,6.06
2018-03-24T14:35:20.817Z,5.94
2018-03-24T14:36:09.892Z,5.80
2018-03-24T14:36:59.049Z,5.63
2018-03-24T14:37:48.232Z,5.71
2018-03-24T14:38:37.284Z,5.73
2018-03-24T14:39:26.436Z,5.81
2018-03-24T14:40:15.515Z,5.85
2018-03-24T14:41:04.605Z,5.61
2018-03-24T14:41:53.666Z,5.59
2018-03-24T14:42:42.748Z,5.59
2018-03-24T14:43:31.923Z,5.44
2018-03-24T14:44:21.072Z,5.54
2018-03-24T14:45:10.151Z,5.26
2018-03-24T14:45:59.384Z,4.97
2018-03-24T14:46:48.448Z,5.18
2018-03-24T14:47:37.570Z,5.29
2018-03-24T14:48:26.632Z,5.34
2018-03-24T14:49:15.845Z,5.35
2018-03-24T14:50:05.075Z,5.37
2018-03-24T14:50:54.142Z,5.47
2018-03-24T14:51:43.206Z,5.54
2018-03-24T14:52:32.371Z,5.48
2018-03-24T14:53:21.501Z,5.59
2018-03-24T14:54:10.567Z,5.63
2018-03-24T14:54:59.858Z,5.58
2018-03-24T14:55:48.910Z,5.60
2018-03-24T14:56:38.133Z,5.62
2018-03-24T14:57:27.208Z,5.55
2018-03-24T14:58:16.320Z,5.48
2018-03-24T14:59:05.395Z,5.12
2018-03-24T14:59:54.514Z,5.00
2018-03-24T15:00:43.577Z,5.14
2018-03-24T15:01:32.662Z,5.13
2018-03-24T15:02:21.718Z,5.09
2018-03-24T15:03:10.786Z,5.03
2018-03-24T15:03:59.908Z,4.92
2018-03-24T15:04:49.048Z,4.86
2018-03-24T15:05:38.151Z,4.93
2018-03-24T15:06:27.248Z,5.04
2018-03-24T15:07:16.288Z,5.19
2018-03-24T15:08:05.402Z,5.16
2018-03-24T15:08:54.571Z,5.28
2018-03-24T15:09:43.641Z,5.15
2018-03-24T15:10:32.723Z,5.23
2018-03-24T15:11:21.790Z,5.10
2018-03-24T15:12:10.849Z,5.08
2018-03-24T15:12:59.931Z,5.03
2018-03-24T15:13:49.011Z,4.93
2018-03-24T15:14:38.125Z,4.98
2018-03-24T15:15:27.184Z,5.16
2018-03-24T15:16:16.237Z,4.94
2018-03-24T15:17:05.320Z,4.92
2018-03-24T15:17:54.444Z,4.82
2018-03-24T15:18:43.512Z,4.78
2018-03-24T15:19:32.612Z,4.74
2018-03-24T15:20:21.751Z,4.87
2018-03-24T15:21:10.869Z,4.92
2018-03-24T15:21:59.930Z,4.81
2018-03-24T15:22:48.992Z,4.77
2018-03-24T15:23:38.050Z,4.79
2018-03-24T15:24:27.172Z,4.90
2018-03-24T15:25:16.245Z,4.92
2018-03-24T18:04:52.069Z,2.61
2018-03-24T18:05:41.198Z,2.63
2018-03-24T18:06:31.101Z,2.62
2018-03-24T18:07:20.181Z,2.64
2018-03-24T18:08:09.277Z,2.65
2018-03-24T18:08:58.467Z,2.64
2018-03-24T18:09:47.540Z,2.68
2018-03-24T18:10:36.663Z,2.77
2018-03-24T18:11:25.766Z,2.81
2018-03-24T18:12:16.366Z,2.84
2018-03-24T18:13:05.461Z,2.83
2018-03-24T18:13:54.641Z,2.82
2018-03-24T18:14:43.711Z,2.88
2018-03-24T18:15:33.844Z,2.90
2018-03-24T18:16:23.001Z,2.91
2018-03-24T18:17:12.094Z,2.83
2018-03-24T18:18:01.182Z,2.83
2018-03-24T18:18:50.309Z,2.92
2018-03-24T18:19:40.218Z,2.99
2018-03-24T18:20:30.737Z,3.01
2018-03-24T18:21:20.692Z,3.07
2018-03-24T18:22:09.926Z,3.08
2018-03-24T18:22:59.006Z,3.09
2018-03-24T18:23:48.092Z,3.09
2018-03-24T18:24:37.183Z,3.13
2018-03-24T18:25:26.270Z,3.13
2018-03-24T18:26:15.386Z,3.11
2018-03-24T18:27:04.564Z,3.04
2018-03-24T18:27:53.651Z,3.08
2018-03-24T18:28:42.718Z,3.38
2018-03-24T18:29:31.790Z,3.56
2018-03-24T18:30:20.864Z,3.61
2018-03-24T18:31:09.932Z,3.78
2018-03-24T18:31:59.533Z,3.74
2018-03-24T18:32:48.606Z,3.81
2018-03-24T18:33:37.680Z,3.69
2018-03-24T18:34:26.750Z,3.64
2018-03-24T18:35:15.820Z,3.62
2018-03-24T18:36:04.910Z,3.48
2018-03-24T18:36:53.979Z,3.44
2018-03-24T18:37:43.145Z,3.45
2018-03-24T18:38:32.205Z,3.50
2018-03-24T18:39:21.271Z,3.39
2018-03-24T18:40:10.338Z,3.39
2018-03-24T18:40:59.412Z,3.29
2018-03-24T18:41:48.528Z,3.30
2018-03-24T18:42:37.639Z,3.26
2018-03-24T18:43:26.703Z,3.33
2018-03-24T18:44:15.833Z,3.34
2018-03-24T18:45:04.942Z,3.35
2018-03-24T18:45:54.044Z,3.40
2018-03-24T18:46:43.170Z,3.36
2018-03-24T18:47:32.243Z,3.42
2018-03-24T18:48:21.329Z,3.46
2018-03-24T18:49:10.496Z,3.41
2018-03-24T18:49:59.597Z,3.47
2018-03-24T18:50:49.310Z,3.49
2018-03-24T18:51:38.378Z,3.44
2018-03-24T18:52:27.444Z,3.44
2018-03-24T18:53:16.510Z,3.32
2018-03-24T18:54:05.591Z,3.31
2018-03-24T18:54:54.788Z,3.15
2018-03-24T18:55:43.858Z,3.14
2018-03-24T18:56:32.959Z,3.10
2018-03-24T18:57:22.080Z,3.13
2018-03-24T18:58:11.164Z,3.02
2018-03-24T18:59:00.280Z,2.97
2018-03-24T18:59:49.358Z,2.93
2018-03-24T19:00:38.503Z,2.91
2018-03-24T19:01:27.577Z,2.89
2018-03-24T19:02:16.764Z,3.02
2018-03-24T19:03:05.859Z,3.08
2018-03-24T19:03:54.950Z,3.10
2018-03-24T19:04:44.028Z,3.26
2018-03-24T19:05:33.117Z,3.27
2018-03-24T19:06:22.249Z,3.32
2018-03-24T19:07:11.326Z,3.36
2018-03-24T19:08:00.386Z,3.39
2018-03-24T19:08:49.542Z,3.32
2018-03-24T19:09:38.624Z,3.30
2018-03-24T19:10:27.688Z,3.29
2018-03-24T19:11:16.822Z,3.23
2018-03-24T19:12:05.909Z,3.27
2018-03-24T19:12:54.984Z,3.30
2018-03-24T19:13:44.264Z,3.30
2018-03-24T19:14:33.373Z,3.30
2018-03-24T19:15:22.441Z,3.29
2018-03-24T19:16:11.544Z,3.23
2018-03-24T19:17:00.623Z,3.09
2018-03-24T19:17:49.701Z,3.03
2018-03-24T19:18:38.763Z,2.97
2018-03-24T19:19:27.868Z,2.91
2018-03-24T19:20:16.999Z,2.92
2018-03-24T19:21:06.094Z,2.93
2018-03-24T19:21:55.155Z,2.82
2018-03-24T19:22:44.228Z,2.89
2018-03-24T19:23:33.314Z,2.97
2018-03-24T19:24:22.381Z,3.00
2018-03-24T19:25:11.519Z,3.06
2018-03-24T19:26:00.674Z,3.06
2018-03-24T19:26:49.758Z,2.97
2018-03-24T19:27:38.837Z,2.89
2018-03-24T19:28:27.932Z,2.85
2018-03-24T19:29:17.014Z,2.89
2018-03-24T19:30:06.089Z,2.85
2018-03-24T19:30:55.170Z,2.89
2018-03-24T19:31:44.267Z,2.91
2018-03-24T19:32:35.987Z,2.93
2018-03-24T19:33:25.411Z,3.04
2018-03-24T19:34:14.488Z,2.99
2018-03-24T19:36:26.594Z,3.19
2018-03-24T19:37:15.776Z,3.21
2018-03-24T19:38:04.885Z,3.23
2018-03-24T19:38:53.951Z,3.23
2018-03-24T19:39:43.068Z,3.27
2018-03-24T19:40:32.154Z,3.31
2018-03-24T19:41:21.297Z,3.42
2018-03-24T19:42:10.473Z,3.43
2018-03-24T19:42:59.582Z,3.41
2018-03-24T19:43:48.806Z,3.43
2018-03-24T19:44:37.886Z,3.47
2018-03-24T19:45:26.960Z,3.44
2018-03-24T19:46:16.039Z,3.44
2018-03-24T19:47:05.160Z,3.47
2018-03-24T19:47:54.223Z,3.46
2018-03-24T19:48:43.283Z,3.49
2018-03-24T19:49:32.347Z,3.51
2018-03-24T19:50:21.421Z,3.40
2018-03-24T19:51:10.853Z,3.41
2018-03-24T19:51:59.960Z,3.34
2018-03-24T19:52:49.146Z,3.30
2018-03-24T19:53:38.497Z,3.32
2018-03-24T19:54:27.622Z,3.35
2018-03-24T19:55:16.690Z,3.38
2018-03-24T19:56:05.840Z,3.40
2018-03-24T19:56:55.220Z,3.41
2018-03-24T19:57:44.296Z,3.40
2018-03-24T19:58:33.367Z,3.39
2018-03-24T19:59:22.434Z,3.40
2018-03-24T20:00:11.499Z,3.44
2018-03-24T20:01:00.601Z,3.34
2018-03-24T20:01:49.665Z,3.30
2018-03-24T20:02:38.840Z,3.30
2018-03-24T20:03:27.919Z,3.29
2018-03-24T20:04:16.988Z,3.26
2018-03-24T20:05:06.143Z,3.17
2018-03-24T20:05:55.221Z,3.17
2018-03-24T20:06:44.383Z,3.15
2018-03-24T20:07:33.456Z,3.08
2018-03-24T20:08:22.663Z,3.04
2018-03-24T20:09:11.733Z,3.03
2018-03-24T20:10:00.944Z,3.03
2018-03-24T20:10:50.017Z,3.01
2018-03-24T20:11:39.093Z,3.03
2018-03-24T20:12:28.167Z,3.10
2018-03-24T20:13:17.767Z,3.14
2018-03-24T20:14:06.874Z,3.19
2018-03-24T20:14:55.960Z,3.21
2018-03-24T20:15:45.219Z,3.27
2018-03-24T20:16:34.452Z,3.31
2018-03-24T20:17:23.438Z,3.27
2018-03-24T20:18:12.522Z,3.24
2018-03-24T20:19:01.583Z,3.26
2018-03-24T20:19:50.698Z,3.29
2018-03-24T20:20:39.770Z,3.37
2018-03-24T20:21:28.862Z,3.31
2018-03-24T20:22:17.998Z,3.28
2018-03-24T20:23:07.060Z,3.21
2018-03-24T20:23:56.149Z,3.21
2018-03-24T20:24:45.321Z,3.22
2018-03-24T20:25:34.410Z,3.19
2018-03-24T20:26:23.467Z,3.20
2018-03-24T20:27:12.581Z,3.17
2018-03-24T20:28:01.673Z,3.13
2018-03-24T20:28:50.750Z,3.17
2018-03-24T20:29:39.816Z,3.21
